sensor_id;sensor_type;location;lat;lon;timestamp;P1;durP1;ratioP1;P2;durP2;ratioP2
54235;SDS011;40151;43.606;1.472;2023-04-24T00:02:22;2.97;;;1.20;;
54235;SDS011;40151;43.606;1.472;2023-04-24T00:04:47;1.55;;;1.00;;
54235;SDS011;40151;43.606;1.472;2023-04-24T00:07:14;2.90;;;1.00;;
54235;SDS011;40151;43.606;1.472;2023-04-24T00:09:41;2.17;;;0.93;;
54235;SDS011;40151;43.606;1.472;2023-04-24T00:12:07;1.67;;;0.90;;
54235;SDS011;40151;43.606;1.472;2023-04-24T00:14:33;1.92;;;1.00;;
54235;SDS011;40151;43.606;1.472;2023-04-24T00:17:00;2.22;;;0.93;;
54235;SDS011;40151;43.606;1.472;2023-04-24T00:19:26;2.00;;;0.90;;
54235;SDS011;40151;43.606;1.472;2023-04-24T00:21:51;2.20;;;0.90;;
54235;SDS011;40151;43.606;1.472;2023-04-24T00:24:17;2.83;;;1.20;;
54235;SDS011;40151;43.606;1.472;2023-04-24T00:26:43;1.58;;;0.93;;
54235;SDS011;40151;43.606;1.472;2023-04-24T00:29:09;1.88;;;1.23;;
54235;SDS011;40151;43.606;1.472;2023-04-24T00:31:34;1.83;;;1.00;;
54235;SDS011;40151;43.606;1.472;2023-04-24T00:34:00;2.25;;;1.17;;
54235;SDS011;40151;43.606;1.472;2023-04-24T00:36:27;2.38;;;1.00;;
54235;SDS011;40151;43.606;1.472;2023-04-24T00:38:53;2.13;;;1.00;;
54235;SDS011;40151;43.606;1.472;2023-04-24T00:41:18;2.00;;;1.00;;
54235;SDS011;40151;43.606;1.472;2023-04-24T00:43:44;2.30;;;1.05;;
54235;SDS011;40151;43.606;1.472;2023-04-24T00:46:10;1.70;;;0.90;;
54235;SDS011;40151;43.606;1.472;2023-04-24T00:48:38;1.95;;;0.80;;
54235;SDS011;40151;43.606;1.472;2023-04-24T00:51:04;1.55;;;0.80;;
54235;SDS011;40151;43.606;1.472;2023-04-24T00:53:30;1.65;;;0.93;;
54235;SDS011;40151;43.606;1.472;2023-04-24T00:55:55;2.00;;;1.10;;
54235;SDS011;40151;43.606;1.472;2023-04-24T00:58:21;2.17;;;1.13;;
54235;SDS011;40151;43.606;1.472;2023-04-24T01:00:48;1.33;;;0.93;;
54235;SDS011;40151;43.606;1.472;2023-04-24T01:03:18;2.38;;;1.15;;
54235;SDS011;40151;43.606;1.472;2023-04-24T01:05:45;1.83;;;1.10;;
54235;SDS011;40151;43.606;1.472;2023-04-24T01:08:11;3.33;;;1.10;;
54235;SDS011;40151;43.606;1.472;2023-04-24T01:10:36;2.30;;;1.10;;
54235;SDS011;40151;43.606;1.472;2023-04-24T01:13:03;1.63;;;0.95;;
54235;SDS011;40151;43.606;1.472;2023-04-24T01:15:30;1.15;;;0.70;;
54235;SDS011;40151;43.606;1.472;2023-04-24T01:17:55;1.65;;;1.10;;
54235;SDS011;40151;43.606;1.472;2023-04-24T01:20:21;2.03;;;1.08;;
54235;SDS011;40151;43.606;1.472;2023-04-24T01:22:49;3.00;;;0.95;;
54235;SDS011;40151;43.606;1.472;2023-04-24T01:25:15;2.65;;;1.10;;
54235;SDS011;40151;43.606;1.472;2023-04-24T01:27:40;2.08;;;1.02;;
54235;SDS011;40151;43.606;1.472;2023-04-24T01:30:06;1.73;;;0.98;;
54235;SDS011;40151;43.606;1.472;2023-04-24T01:32:32;1.88;;;1.05;;
54235;SDS011;40151;43.606;1.472;2023-04-24T01:34:58;2.30;;;0.90;;
54235;SDS011;40151;43.606;1.472;2023-04-24T01:37:24;2.30;;;1.10;;
54235;SDS011;40151;43.606;1.472;2023-04-24T01:39:49;3.25;;;1.10;;
54235;SDS011;40151;43.606;1.472;2023-04-24T01:42:15;2.70;;;0.98;;
54235;SDS011;40151;43.606;1.472;2023-04-24T01:44:41;2.05;;;0.82;;
54235;SDS011;40151;43.606;1.472;2023-04-24T01:47:07;1.90;;;1.08;;
54235;SDS011;40151;43.606;1.472;2023-04-24T01:49:32;2.08;;;1.02;;
54235;SDS011;40151;43.606;1.472;2023-04-24T01:51:58;1.75;;;1.02;;
54235;SDS011;40151;43.606;1.472;2023-04-24T01:54:23;2.40;;;1.10;;
54235;SDS011;40151;43.606;1.472;2023-04-24T01:56:48;1.83;;;1.05;;
54235;SDS011;40151;43.606;1.472;2023-04-24T01:59:14;3.13;;;1.33;;
54235;SDS011;40151;43.606;1.472;2023-04-24T02:01:41;1.85;;;1.10;;
54235;SDS011;40151;43.606;1.472;2023-04-24T02:04:07;2.50;;;1.15;;
54235;SDS011;40151;43.606;1.472;2023-04-24T02:06:33;1.67;;;1.05;;
54235;SDS011;40151;43.606;1.472;2023-04-24T02:08:58;1.92;;;0.80;;
54235;SDS011;40151;43.606;1.472;2023-04-24T02:11:24;1.40;;;0.80;;
54235;SDS011;40151;43.606;1.472;2023-04-24T02:13:50;2.13;;;1.02;;
54235;SDS011;40151;43.606;1.472;2023-04-24T02:16:16;2.15;;;0.93;;
54235;SDS011;40151;43.606;1.472;2023-04-24T02:18:42;2.35;;;1.00;;
54235;SDS011;40151;43.606;1.472;2023-04-24T02:21:08;2.10;;;0.90;;
54235;SDS011;40151;43.606;1.472;2023-04-24T02:23:33;2.20;;;0.95;;
54235;SDS011;40151;43.606;1.472;2023-04-24T02:25:58;2.05;;;1.00;;
54235;SDS011;40151;43.606;1.472;2023-04-24T02:28:24;2.42;;;1.00;;
54235;SDS011;40151;43.606;1.472;2023-04-24T02:30:49;1.80;;;0.93;;
54235;SDS011;40151;43.606;1.472;2023-04-24T02:33:15;2.25;;;1.08;;
54235;SDS011;40151;43.606;1.472;2023-04-24T02:35:41;2.53;;;0.90;;
54235;SDS011;40151;43.606;1.472;2023-04-24T02:38:07;2.55;;;1.27;;
54235;SDS011;40151;43.606;1.472;2023-04-24T02:40:32;1.60;;;0.82;;
54235;SDS011;40151;43.606;1.472;2023-04-24T02:42:57;2.58;;;1.30;;
54235;SDS011;40151;43.606;1.472;2023-04-24T02:45:23;2.83;;;1.00;;
54235;SDS011;40151;43.606;1.472;2023-04-24T02:47:48;2.33;;;0.85;;
54235;SDS011;40151;43.606;1.472;2023-04-24T02:50:14;2.65;;;1.10;;
54235;SDS011;40151;43.606;1.472;2023-04-24T02:52:39;2.08;;;0.82;;
54235;SDS011;40151;43.606;1.472;2023-04-24T02:55:04;1.98;;;0.98;;
54235;SDS011;40151;43.606;1.472;2023-04-24T02:57:30;1.98;;;0.90;;
54235;SDS011;40151;43.606;1.472;2023-04-24T02:59:55;1.73;;;0.90;;
54235;SDS011;40151;43.606;1.472;2023-04-24T03:02:21;2.80;;;1.45;;
54235;SDS011;40151;43.606;1.472;2023-04-24T03:04:46;1.90;;;1.02;;
54235;SDS011;40151;43.606;1.472;2023-04-24T03:07:13;2.40;;;1.15;;
54235;SDS011;40151;43.606;1.472;2023-04-24T03:09:39;1.42;;;0.80;;
54235;SDS011;40151;43.606;1.472;2023-04-24T03:12:05;1.85;;;0.93;;
54235;SDS011;40151;43.606;1.472;2023-04-24T03:14:31;1.60;;;1.10;;
54235;SDS011;40151;43.606;1.472;2023-04-24T03:16:56;1.98;;;0.95;;
54235;SDS011;40151;43.606;1.472;2023-04-24T03:19:22;2.30;;;1.10;;
54235;SDS011;40151;43.606;1.472;2023-04-24T03:21:47;2.15;;;0.73;;
54235;SDS011;40151;43.606;1.472;2023-04-24T03:24:13;1.20;;;0.75;;
54235;SDS011;40151;43.606;1.472;2023-04-24T03:26:39;2.53;;;1.15;;
54235;SDS011;40151;43.606;1.472;2023-04-24T03:29:04;1.60;;;0.77;;
54235;SDS011;40151;43.606;1.472;2023-04-24T03:31:29;3.50;;;1.02;;
54235;SDS011;40151;43.606;1.472;2023-04-24T03:33:55;1.10;;;0.82;;
54235;SDS011;40151;43.606;1.472;2023-04-24T03:36:20;2.28;;;1.00;;
54235;SDS011;40151;43.606;1.472;2023-04-24T03:38:46;2.05;;;0.93;;
54235;SDS011;40151;43.606;1.472;2023-04-24T03:41:11;2.08;;;0.75;;
54235;SDS011;40151;43.606;1.472;2023-04-24T03:43:37;1.52;;;0.70;;
54235;SDS011;40151;43.606;1.472;2023-04-24T03:46:02;2.33;;;1.10;;
54235;SDS011;40151;43.606;1.472;2023-04-24T03:48:28;1.77;;;0.95;;
54235;SDS011;40151;43.606;1.472;2023-04-24T03:50:54;1.83;;;0.80;;
54235;SDS011;40151;43.606;1.472;2023-04-24T03:53:19;2.28;;;0.80;;
54235;SDS011;40151;43.606;1.472;2023-04-24T03:55:45;3.08;;;1.13;;
54235;SDS011;40151;43.606;1.472;2023-04-24T03:58:10;2.28;;;1.00;;
54235;SDS011;40151;43.606;1.472;2023-04-24T04:00:36;3.92;;;1.10;;
54235;SDS011;40151;43.606;1.472;2023-04-24T04:03:02;3.55;;;1.25;;
54235;SDS011;40151;43.606;1.472;2023-04-24T04:05:28;2.33;;;1.00;;
54235;SDS011;40151;43.606;1.472;2023-04-24T04:07:54;2.80;;;1.05;;
54235;SDS011;40151;43.606;1.472;2023-04-24T04:10:20;3.28;;;1.15;;
54235;SDS011;40151;43.606;1.472;2023-04-24T04:12:45;1.35;;;0.80;;
54235;SDS011;40151;43.606;1.472;2023-04-24T04:15:10;3.45;;;1.00;;
54235;SDS011;40151;43.606;1.472;2023-04-24T04:17:36;1.85;;;0.90;;
54235;SDS011;40151;43.606;1.472;2023-04-24T04:20:03;2.05;;;0.88;;
54235;SDS011;40151;43.606;1.472;2023-04-24T04:22:32;2.00;;;0.73;;
54235;SDS011;40151;43.606;1.472;2023-04-24T04:24:58;3.45;;;0.80;;
54235;SDS011;40151;43.606;1.472;2023-04-24T04:27:23;1.90;;;1.10;;
54235;SDS011;40151;43.606;1.472;2023-04-24T04:29:48;2.55;;;1.00;;
54235;SDS011;40151;43.606;1.472;2023-04-24T04:32:15;1.73;;;0.90;;
54235;SDS011;40151;43.606;1.472;2023-04-24T04:34:40;1.75;;;0.77;;
54235;SDS011;40151;43.606;1.472;2023-04-24T04:37:07;1.63;;;0.80;;
54235;SDS011;40151;43.606;1.472;2023-04-24T04:39:32;2.35;;;0.73;;
54235;SDS011;40151;43.606;1.472;2023-04-24T04:41:58;1.95;;;0.88;;
54235;SDS011;40151;43.606;1.472;2023-04-24T04:44:23;1.80;;;1.00;;
54235;SDS011;40151;43.606;1.472;2023-04-24T04:46:49;2.05;;;0.90;;
54235;SDS011;40151;43.606;1.472;2023-04-24T04:49:15;1.50;;;0.90;;
54235;SDS011;40151;43.606;1.472;2023-04-24T04:51:41;2.13;;;0.95;;
54235;SDS011;40151;43.606;1.472;2023-04-24T04:54:07;2.15;;;1.02;;
54235;SDS011;40151;43.606;1.472;2023-04-24T04:56:32;3.30;;;0.90;;
54235;SDS011;40151;43.606;1.472;2023-04-24T04:58:58;2.75;;;0.98;;
54235;SDS011;40151;43.606;1.472;2023-04-24T05:01:24;2.67;;;1.08;;
54235;SDS011;40151;43.606;1.472;2023-04-24T05:03:52;2.15;;;0.98;;
54235;SDS011;40151;43.606;1.472;2023-04-24T05:06:18;3.47;;;1.00;;
54235;SDS011;40151;43.606;1.472;2023-04-24T05:08:43;2.40;;;1.00;;
54235;SDS011;40151;43.606;1.472;2023-04-24T05:11:09;2.40;;;0.82;;
54235;SDS011;40151;43.606;1.472;2023-04-24T05:13:35;2.17;;;1.08;;
54235;SDS011;40151;43.606;1.472;2023-04-24T05:16:00;2.47;;;1.00;;
54235;SDS011;40151;43.606;1.472;2023-04-24T05:18:26;1.95;;;1.10;;
54235;SDS011;40151;43.606;1.472;2023-04-24T05:20:51;2.50;;;1.00;;
54235;SDS011;40151;43.606;1.472;2023-04-24T05:23:16;2.17;;;0.80;;
54235;SDS011;40151;43.606;1.472;2023-04-24T05:25:42;2.05;;;0.80;;
54235;SDS011;40151;43.606;1.472;2023-04-24T05:28:08;3.22;;;0.98;;
54235;SDS011;40151;43.606;1.472;2023-04-24T05:30:33;2.67;;;1.10;;
54235;SDS011;40151;43.606;1.472;2023-04-24T05:32:58;3.05;;;1.02;;
54235;SDS011;40151;43.606;1.472;2023-04-24T05:35:24;2.83;;;0.85;;
54235;SDS011;40151;43.606;1.472;2023-04-24T05:37:50;2.63;;;0.82;;
54235;SDS011;40151;43.606;1.472;2023-04-24T05:40:15;1.88;;;0.80;;
54235;SDS011;40151;43.606;1.472;2023-04-24T05:42:40;1.70;;;0.90;;
54235;SDS011;40151;43.606;1.472;2023-04-24T05:45:06;2.92;;;1.10;;
54235;SDS011;40151;43.606;1.472;2023-04-24T05:47:32;1.92;;;0.80;;
54235;SDS011;40151;43.606;1.472;2023-04-24T05:49:57;1.15;;;0.80;;
54235;SDS011;40151;43.606;1.472;2023-04-24T05:52:23;2.25;;;0.80;;
54235;SDS011;40151;43.606;1.472;2023-04-24T05:54:48;2.15;;;1.00;;
54235;SDS011;40151;43.606;1.472;2023-04-24T05:57:13;3.10;;;1.00;;
54235;SDS011;40151;43.606;1.472;2023-04-24T05:59:40;2.22;;;0.88;;
54235;SDS011;40151;43.606;1.472;2023-04-24T06:02:05;2.35;;;1.00;;
54235;SDS011;40151;43.606;1.472;2023-04-24T06:04:31;1.88;;;0.75;;
54235;SDS011;40151;43.606;1.472;2023-04-24T06:06:57;3.10;;;1.10;;
54235;SDS011;40151;43.606;1.472;2023-04-24T06:09:22;2.67;;;1.00;;
54235;SDS011;40151;43.606;1.472;2023-04-24T06:11:49;2.00;;;0.75;;
54235;SDS011;40151;43.606;1.472;2023-04-24T06:14:17;3.55;;;0.95;;
54235;SDS011;40151;43.606;1.472;2023-04-24T06:16:43;1.77;;;0.85;;
54235;SDS011;40151;43.606;1.472;2023-04-24T06:19:08;2.40;;;0.98;;
54235;SDS011;40151;43.606;1.472;2023-04-24T06:21:33;1.88;;;0.63;;
54235;SDS011;40151;43.606;1.472;2023-04-24T06:23:59;1.70;;;0.73;;
54235;SDS011;40151;43.606;1.472;2023-04-24T06:26:25;3.90;;;1.20;;
54235;SDS011;40151;43.606;1.472;2023-04-24T06:28:51;2.78;;;1.20;;
54235;SDS011;40151;43.606;1.472;2023-04-24T06:31:18;2.33;;;1.00;;
54235;SDS011;40151;43.606;1.472;2023-04-24T06:33:45;2.58;;;0.90;;
54235;SDS011;40151;43.606;1.472;2023-04-24T06:36:10;3.00;;;1.17;;
54235;SDS011;40151;43.606;1.472;2023-04-24T06:38:36;2.60;;;0.77;;
54235;SDS011;40151;43.606;1.472;2023-04-24T06:41:02;2.25;;;0.90;;
54235;SDS011;40151;43.606;1.472;2023-04-24T06:43:28;2.78;;;1.10;;
54235;SDS011;40151;43.606;1.472;2023-04-24T06:45:53;2.80;;;0.93;;
54235;SDS011;40151;43.606;1.472;2023-04-24T06:48:19;2.35;;;0.93;;
54235;SDS011;40151;43.606;1.472;2023-04-24T06:50:44;2.28;;;1.10;;
54235;SDS011;40151;43.606;1.472;2023-04-24T06:53:10;2.55;;;0.95;;
54235;SDS011;40151;43.606;1.472;2023-04-24T06:55:37;2.13;;;0.88;;
54235;SDS011;40151;43.606;1.472;2023-04-24T06:58:03;2.30;;;0.90;;
54235;SDS011;40151;43.606;1.472;2023-04-24T07:00:28;2.13;;;0.93;;
54235;SDS011;40151;43.606;1.472;2023-04-24T07:02:55;4.10;;;1.33;;
54235;SDS011;40151;43.606;1.472;2023-04-24T07:05:20;2.45;;;0.88;;
54235;SDS011;40151;43.606;1.472;2023-04-24T07:07:46;2.70;;;1.05;;
54235;SDS011;40151;43.606;1.472;2023-04-24T07:10:12;2.22;;;0.90;;
54235;SDS011;40151;43.606;1.472;2023-04-24T07:12:38;3.03;;;1.10;;
54235;SDS011;40151;43.606;1.472;2023-04-24T07:15:04;3.08;;;1.00;;
54235;SDS011;40151;43.606;1.472;2023-04-24T07:17:30;3.70;;;1.10;;
54235;SDS011;40151;43.606;1.472;2023-04-24T07:19:55;1.85;;;0.80;;
54235;SDS011;40151;43.606;1.472;2023-04-24T07:22:21;2.15;;;0.95;;
54235;SDS011;40151;43.606;1.472;2023-04-24T07:24:46;4.00;;;1.02;;
54235;SDS011;40151;43.606;1.472;2023-04-24T07:27:12;1.50;;;0.77;;
54235;SDS011;40151;43.606;1.472;2023-04-24T07:29:39;2.85;;;0.90;;
54235;SDS011;40151;43.606;1.472;2023-04-24T07:32:05;3.03;;;0.90;;
54235;SDS011;40151;43.606;1.472;2023-04-24T07:34:31;3.05;;;1.05;;
54235;SDS011;40151;43.606;1.472;2023-04-24T07:36:57;3.05;;;0.95;;
54235;SDS011;40151;43.606;1.472;2023-04-24T07:39:23;2.70;;;1.10;;
54235;SDS011;40151;43.606;1.472;2023-04-24T07:41:48;2.25;;;0.68;;
54235;SDS011;40151;43.606;1.472;2023-04-24T07:44:14;2.25;;;0.80;;
54235;SDS011;40151;43.606;1.472;2023-04-24T07:46:40;3.20;;;1.00;;
54235;SDS011;40151;43.606;1.472;2023-04-24T07:49:05;3.28;;;1.00;;
54235;SDS011;40151;43.606;1.472;2023-04-24T07:51:31;1.92;;;0.70;;
54235;SDS011;40151;43.606;1.472;2023-04-24T07:53:58;2.75;;;0.85;;
54235;SDS011;40151;43.606;1.472;2023-04-24T07:56:24;2.55;;;0.90;;
54235;SDS011;40151;43.606;1.472;2023-04-24T07:58:50;1.90;;;0.80;;
54235;SDS011;40151;43.606;1.472;2023-04-24T08:01:15;1.83;;;0.73;;
54235;SDS011;40151;43.606;1.472;2023-04-24T08:03:41;2.58;;;1.00;;
54235;SDS011;40151;43.606;1.472;2023-04-24T08:06:06;2.85;;;0.98;;
54235;SDS011;40151;43.606;1.472;2023-04-24T08:08:32;1.98;;;0.90;;
54235;SDS011;40151;43.606;1.472;2023-04-24T08:10:57;3.65;;;0.90;;
54235;SDS011;40151;43.606;1.472;2023-04-24T08:13:23;4.32;;;1.17;;
54235;SDS011;40151;43.606;1.472;2023-04-24T08:15:48;3.10;;;1.15;;
54235;SDS011;40151;43.606;1.472;2023-04-24T08:18:14;1.95;;;0.70;;
54235;SDS011;40151;43.606;1.472;2023-04-24T08:20:40;1.90;;;0.90;;
54235;SDS011;40151;43.606;1.472;2023-04-24T08:23:06;1.45;;;0.85;;
54235;SDS011;40151;43.606;1.472;2023-04-24T08:25:32;3.95;;;0.80;;
54235;SDS011;40151;43.606;1.472;2023-04-24T08:27:57;1.80;;;0.82;;
54235;SDS011;40151;43.606;1.472;2023-04-24T08:30:23;2.90;;;0.90;;
54235;SDS011;40151;43.606;1.472;2023-04-24T08:32:48;2.00;;;0.80;;
54235;SDS011;40151;43.606;1.472;2023-04-24T08:35:14;3.20;;;0.80;;
54235;SDS011;40151;43.606;1.472;2023-04-24T08:37:39;1.40;;;0.77;;
54235;SDS011;40151;43.606;1.472;2023-04-24T08:40:27;1.88;;;0.95;;
54235;SDS011;40151;43.606;1.472;2023-04-24T08:42:56;2.85;;;0.98;;
54235;SDS011;40151;43.606;1.472;2023-04-24T08:45:22;2.45;;;0.90;;
54235;SDS011;40151;43.606;1.472;2023-04-24T08:47:48;2.80;;;0.98;;
54235;SDS011;40151;43.606;1.472;2023-04-24T08:50:14;2.35;;;0.90;;
54235;SDS011;40151;43.606;1.472;2023-04-24T08:52:41;1.90;;;0.70;;
54235;SDS011;40151;43.606;1.472;2023-04-24T08:55:07;1.55;;;0.85;;
54235;SDS011;40151;43.606;1.472;2023-04-24T08:57:32;3.75;;;0.90;;
54235;SDS011;40151;43.606;1.472;2023-04-24T08:59:58;1.98;;;0.68;;
54235;SDS011;40151;43.606;1.472;2023-04-24T09:02:25;1.38;;;0.63;;
54235;SDS011;40151;43.606;1.472;2023-04-24T09:04:51;3.53;;;1.00;;
54235;SDS011;40151;43.606;1.472;2023-04-24T09:07:18;2.45;;;0.80;;
54235;SDS011;40151;43.606;1.472;2023-04-24T09:09:47;1.95;;;0.85;;
54235;SDS011;40151;43.606;1.472;2023-04-24T09:12:14;2.85;;;0.88;;
54235;SDS011;40151;43.606;1.472;2023-04-24T09:14:40;2.10;;;0.82;;
54235;SDS011;40151;43.606;1.472;2023-04-24T09:17:09;2.05;;;0.73;;
54235;SDS011;40151;43.606;1.472;2023-04-24T09:19:35;3.10;;;0.90;;
54235;SDS011;40151;43.606;1.472;2023-04-24T09:22:04;2.20;;;0.60;;
54235;SDS011;40151;43.606;1.472;2023-04-24T09:24:31;1.42;;;0.70;;
54235;SDS011;40151;43.606;1.472;2023-04-24T09:26:57;2.83;;;0.82;;
54235;SDS011;40151;43.606;1.472;2023-04-24T09:29:32;1.55;;;0.75;;
54235;SDS011;40151;43.606;1.472;2023-04-24T09:31:58;3.08;;;1.02;;
54235;SDS011;40151;43.606;1.472;2023-04-24T09:34:27;1.63;;;0.80;;
54235;SDS011;40151;43.606;1.472;2023-04-24T09:36:53;1.88;;;0.80;;
54235;SDS011;40151;43.606;1.472;2023-04-24T09:39:19;2.38;;;0.60;;
54235;SDS011;40151;43.606;1.472;2023-04-24T09:41:48;2.83;;;0.82;;
54235;SDS011;40151;43.606;1.472;2023-04-24T09:46:41;2.00;;;0.77;;
54235;SDS011;40151;43.606;1.472;2023-04-24T09:49:14;2.00;;;0.77;;
54235;SDS011;40151;43.606;1.472;2023-04-24T09:51:41;1.58;;;0.80;;
54235;SDS011;40151;43.606;1.472;2023-04-24T09:54:13;1.85;;;0.80;;
54235;SDS011;40151;43.606;1.472;2023-04-24T09:56:43;2.00;;;0.83;;
54235;SDS011;40151;43.606;1.472;2023-04-24T09:59:10;1.00;;;0.50;;
54235;SDS011;40151;43.606;1.472;2023-04-24T10:01:36;3.30;;;1.00;;
54235;SDS011;40151;43.606;1.472;2023-04-24T10:04:03;1.20;;;0.60;;
54235;SDS011;40151;43.606;1.472;2023-04-24T10:06:35;2.17;;;0.95;;
54235;SDS011;40151;43.606;1.472;2023-04-24T10:09:01;2.40;;;0.80;;
54235;SDS011;40151;43.606;1.472;2023-04-24T10:11:27;1.65;;;0.75;;
54235;SDS011;40151;43.606;1.472;2023-04-24T10:13:53;1.50;;;0.75;;
54235;SDS011;40151;43.606;1.472;2023-04-24T10:16:19;2.20;;;0.70;;
54235;SDS011;40151;43.606;1.472;2023-04-24T10:18:48;2.90;;;0.90;;
54235;SDS011;40151;43.606;1.472;2023-04-24T10:21:14;1.40;;;0.70;;
54235;SDS011;40151;43.606;1.472;2023-04-24T10:23:40;1.77;;;0.80;;
54235;SDS011;40151;43.606;1.472;2023-04-24T10:26:08;2.28;;;0.75;;
54235;SDS011;40151;43.606;1.472;2023-04-24T10:28:34;2.28;;;0.80;;
54235;SDS011;40151;43.606;1.472;2023-04-24T10:31:01;2.42;;;0.82;;
54235;SDS011;40151;43.606;1.472;2023-04-24T10:33:27;1.88;;;0.73;;
54235;SDS011;40151;43.606;1.472;2023-04-24T10:35:54;1.58;;;0.73;;
54235;SDS011;40151;43.606;1.472;2023-04-24T10:38:24;2.88;;;0.75;;
54235;SDS011;40151;43.606;1.472;2023-04-24T10:40:54;2.65;;;1.08;;
54235;SDS011;40151;43.606;1.472;2023-04-24T10:43:31;2.60;;;0.93;;
54235;SDS011;40151;43.606;1.472;2023-04-24T10:46:02;3.10;;;0.98;;
54235;SDS011;40151;43.606;1.472;2023-04-24T10:48:29;2.53;;;0.82;;
54235;SDS011;40151;43.606;1.472;2023-04-24T10:50:55;2.58;;;0.80;;
54235;SDS011;40151;43.606;1.472;2023-04-24T10:53:21;3.25;;;0.82;;
54235;SDS011;40151;43.606;1.472;2023-04-24T10:55:51;2.63;;;0.80;;
54235;SDS011;40151;43.606;1.472;2023-04-24T10:58:23;3.25;;;0.90;;
54235;SDS011;40151;43.606;1.472;2023-04-24T11:00:59;3.08;;;0.98;;
54235;SDS011;40151;43.606;1.472;2023-04-24T11:03:28;1.67;;;0.75;;
54235;SDS011;40151;43.606;1.472;2023-04-24T11:10:57;1.55;;;0.70;;
54235;SDS011;40151;43.606;1.472;2023-04-24T11:13:25;2.00;;;0.77;;
54235;SDS011;40151;43.606;1.472;2023-04-24T11:18:41;2.53;;;0.80;;
54235;SDS011;40151;43.606;1.472;2023-04-24T11:21:18;2.83;;;1.00;;
54235;SDS011;40151;43.606;1.472;2023-04-24T11:23:45;1.92;;;0.70;;
54235;SDS011;40151;43.606;1.472;2023-04-24T11:26:11;2.55;;;0.70;;
54235;SDS011;40151;43.606;1.472;2023-04-24T11:28:43;2.42;;;0.73;;
54235;SDS011;40151;43.606;1.472;2023-04-24T11:34:14;2.67;;;1.02;;
54235;SDS011;40151;43.606;1.472;2023-04-24T11:36:47;2.45;;;0.60;;
54235;SDS011;40151;43.606;1.472;2023-04-24T11:39:13;1.92;;;0.80;;
54235;SDS011;40151;43.606;1.472;2023-04-24T11:41:39;3.08;;;0.70;;
54235;SDS011;40151;43.606;1.472;2023-04-24T11:44:08;2.42;;;0.70;;
54235;SDS011;40151;43.606;1.472;2023-04-24T11:46:35;1.67;;;0.82;;
54235;SDS011;40151;43.606;1.472;2023-04-24T11:49:02;3.20;;;0.90;;
54235;SDS011;40151;43.606;1.472;2023-04-24T11:51:28;1.67;;;0.88;;
54235;SDS011;40151;43.606;1.472;2023-04-24T11:53:54;2.30;;;0.70;;
54235;SDS011;40151;43.606;1.472;2023-04-24T11:56:21;1.75;;;0.80;;
54235;SDS011;40151;43.606;1.472;2023-04-24T11:58:53;1.38;;;0.55;;
54235;SDS011;40151;43.606;1.472;2023-04-24T12:01:19;1.60;;;0.50;;
54235;SDS011;40151;43.606;1.472;2023-04-24T12:03:58;2.15;;;0.80;;
54235;SDS011;40151;43.606;1.472;2023-04-24T12:06:25;2.92;;;0.85;;
54235;SDS011;40151;43.606;1.472;2023-04-24T12:08:52;2.67;;;1.02;;
54235;SDS011;40151;43.606;1.472;2023-04-24T12:11:20;2.28;;;0.80;;
54235;SDS011;40151;43.606;1.472;2023-04-24T12:13:45;1.83;;;0.80;;
54235;SDS011;40151;43.606;1.472;2023-04-24T12:16:11;1.85;;;0.63;;
54235;SDS011;40151;43.606;1.472;2023-04-24T12:18:41;2.30;;;0.80;;
54235;SDS011;40151;43.606;1.472;2023-04-24T12:21:20;1.58;;;0.90;;
54235;SDS011;40151;43.606;1.472;2023-04-24T12:23:47;3.53;;;0.73;;
54235;SDS011;40151;43.606;1.472;2023-04-24T12:26:17;2.25;;;1.02;;
54235;SDS011;40151;43.606;1.472;2023-04-24T12:28:45;1.83;;;0.73;;
54235;SDS011;40151;43.606;1.472;2023-04-24T12:31:12;3.03;;;0.70;;
54235;SDS011;40151;43.606;1.472;2023-04-24T12:33:37;1.90;;;0.60;;
54235;SDS011;40151;43.606;1.472;2023-04-24T12:36:03;1.77;;;0.75;;
54235;SDS011;40151;43.606;1.472;2023-04-24T12:38:30;2.22;;;0.70;;
54235;SDS011;40151;43.606;1.472;2023-04-24T12:41:08;3.30;;;0.70;;
54235;SDS011;40151;43.606;1.472;2023-04-24T12:43:35;2.33;;;0.90;;
54235;SDS011;40151;43.606;1.472;2023-04-24T12:46:01;3.60;;;0.80;;
54235;SDS011;40151;43.606;1.472;2023-04-24T12:48:27;2.95;;;0.98;;
54235;SDS011;40151;43.606;1.472;2023-04-24T12:50:53;1.42;;;0.85;;
54235;SDS011;40151;43.606;1.472;2023-04-24T12:53:18;3.75;;;1.45;;
54235;SDS011;40151;43.606;1.472;2023-04-24T12:55:44;2.78;;;0.90;;
54235;SDS011;40151;43.606;1.472;2023-04-24T12:58:10;3.75;;;1.17;;
54235;SDS011;40151;43.606;1.472;2023-04-24T13:00:35;4.20;;;1.55;;
54235;SDS011;40151;43.606;1.472;2023-04-24T13:03:01;3.17;;;0.95;;
54235;SDS011;40151;43.606;1.472;2023-04-24T13:05:27;3.85;;;1.60;;
54235;SDS011;40151;43.606;1.472;2023-04-24T13:07:53;5.70;;;2.00;;
54235;SDS011;40151;43.606;1.472;2023-04-24T13:10:18;11.20;;;3.97;;
54235;SDS011;40151;43.606;1.472;2023-04-24T13:12:44;22.08;;;8.77;;
54235;SDS011;40151;43.606;1.472;2023-04-24T13:15:11;10.70;;;3.47;;
54235;SDS011;40151;43.606;1.472;2023-04-24T13:17:36;16.60;;;6.32;;
54235;SDS011;40151;43.606;1.472;2023-04-24T13:20:02;13.80;;;5.35;;
54235;SDS011;40151;43.606;1.472;2023-04-24T13:22:28;13.25;;;4.63;;
54235;SDS011;40151;43.606;1.472;2023-04-24T13:24:53;6.47;;;2.17;;
54235;SDS011;40151;43.606;1.472;2023-04-24T13:27:18;7.63;;;1.73;;
54235;SDS011;40151;43.606;1.472;2023-04-24T13:29:44;7.90;;;2.45;;
54235;SDS011;40151;43.606;1.472;2023-04-24T13:32:10;5.45;;;2.00;;
54235;SDS011;40151;43.606;1.472;2023-04-24T13:34:35;5.68;;;1.40;;
54235;SDS011;40151;43.606;1.472;2023-04-24T13:37:01;4.13;;;1.60;;
54235;SDS011;40151;43.606;1.472;2023-04-24T13:39:29;2.72;;;0.90;;
54235;SDS011;40151;43.606;1.472;2023-04-24T13:41:54;3.70;;;1.00;;
54235;SDS011;40151;43.606;1.472;2023-04-24T13:44:20;4.57;;;1.25;;
54235;SDS011;40151;43.606;1.472;2023-04-24T13:46:47;2.67;;;1.15;;
54235;SDS011;40151;43.606;1.472;2023-04-24T13:49:14;3.30;;;1.20;;
54235;SDS011;40151;43.606;1.472;2023-04-24T13:51:40;5.97;;;1.40;;
54235;SDS011;40151;43.606;1.472;2023-04-24T13:54:06;4.63;;;1.10;;
54235;SDS011;40151;43.606;1.472;2023-04-24T13:56:31;2.95;;;1.42;;
54235;SDS011;40151;43.606;1.472;2023-04-24T13:58:57;5.88;;;2.13;;
54235;SDS011;40151;43.606;1.472;2023-04-24T14:01:22;5.20;;;1.52;;
54235;SDS011;40151;43.606;1.472;2023-04-24T14:03:54;5.15;;;1.77;;
54235;SDS011;40151;43.606;1.472;2023-04-24T14:06:20;6.78;;;2.25;;
54235;SDS011;40151;43.606;1.472;2023-04-24T14:08:46;5.18;;;1.70;;
54235;SDS011;40151;43.606;1.472;2023-04-24T14:11:12;8.93;;;1.73;;
54235;SDS011;40151;43.606;1.472;2023-04-24T14:13:38;5.75;;;1.55;;
54235;SDS011;40151;43.606;1.472;2023-04-24T14:16:05;4.25;;;1.25;;
54235;SDS011;40151;43.606;1.472;2023-04-24T14:18:31;5.85;;;1.30;;
54235;SDS011;40151;43.606;1.472;2023-04-24T14:20:56;4.07;;;1.30;;
54235;SDS011;40151;43.606;1.472;2023-04-24T14:23:22;5.72;;;1.55;;
54235;SDS011;40151;43.606;1.472;2023-04-24T14:25:47;5.05;;;1.67;;
54235;SDS011;40151;43.606;1.472;2023-04-24T14:28:17;4.82;;;1.50;;
54235;SDS011;40151;43.606;1.472;2023-04-24T14:30:43;3.83;;;1.33;;
54235;SDS011;40151;43.606;1.472;2023-04-24T14:33:09;4.65;;;1.52;;
54235;SDS011;40151;43.606;1.472;2023-04-24T14:35:35;5.65;;;1.27;;
54235;SDS011;40151;43.606;1.472;2023-04-24T14:38:01;4.93;;;1.40;;
54235;SDS011;40151;43.606;1.472;2023-04-24T14:40:27;4.32;;;1.00;;
54235;SDS011;40151;43.606;1.472;2023-04-24T14:42:53;5.80;;;1.98;;
54235;SDS011;40151;43.606;1.472;2023-04-24T14:45:18;5.03;;;1.42;;
54235;SDS011;40151;43.606;1.472;2023-04-24T14:47:44;4.60;;;1.23;;
54235;SDS011;40151;43.606;1.472;2023-04-24T14:50:10;5.32;;;1.30;;
54235;SDS011;40151;43.606;1.472;2023-04-24T14:52:37;4.50;;;1.40;;
54235;SDS011;40151;43.606;1.472;2023-04-24T14:55:03;2.95;;;1.08;;
54235;SDS011;40151;43.606;1.472;2023-04-24T14:57:29;4.63;;;1.30;;